sensor_id;sensor_type;location;lat;lon;timestamp;P1;durP1;ratioP1;P2;durP2;ratioP2
30173;SDS011;16985;50.814;8.530;2022-09-14T00:00:58;9.20;;;4.15;;
30173;SDS011;16985;50.814;8.530;2022-09-14T00:03:24;5.93;;;4.10;;
30173;SDS011;16985;50.814;8.530;2022-09-14T00:05:50;8.27;;;4.13;;
30173;SDS011;16985;50.814;8.530;2022-09-14T00:08:15;5.70;;;4.22;;
30173;SDS011;16985;50.814;8.530;2022-09-14T00:10:44;6.30;;;4.13;;
30173;SDS011;16985;50.814;8.530;2022-09-14T00:13:11;5.13;;;3.13;;
30173;SDS011;16985;50.814;8.530;2022-09-14T00:15:39;6.53;;;4.05;;
30173;SDS011;16985;50.814;8.530;2022-09-14T00:18:08;5.50;;;3.83;;
30173;SDS011;16985;50.814;8.530;2022-09-14T00:20:35;7.35;;;4.78;;
30173;SDS011;16985;50.814;8.530;2022-09-14T00:23:01;5.78;;;4.75;;
30173;SDS011;16985;50.814;8.530;2022-09-14T00:25:28;7.50;;;4.30;;
30173;SDS011;16985;50.814;8.530;2022-09-14T00:27:54;6.30;;;4.55;;
30173;SDS011;16985;50.814;8.530;2022-09-14T00:30:21;6.50;;;4.00;;
30173;SDS011;16985;50.814;8.530;2022-09-14T00:32:47;7.30;;;5.10;;
30173;SDS011;16985;50.814;8.530;2022-09-14T00:35:14;6.28;;;4.60;;
30173;SDS011;16985;50.814;8.530;2022-09-14T00:37:41;7.35;;;4.00;;
30173;SDS011;16985;50.814;8.530;2022-09-14T00:40:07;8.13;;;4.28;;
30173;SDS011;16985;50.814;8.530;2022-09-14T00:42:35;6.20;;;4.22;;
30173;SDS011;16985;50.814;8.530;2022-09-14T00:45:23;7.50;;;4.43;;
30173;SDS011;16985;50.814;8.530;2022-09-14T00:47:49;6.60;;;4.13;;
30173;SDS011;16985;50.814;8.530;2022-09-14T00:50:18;5.57;;;4.32;;
30173;SDS011;16985;50.814;8.530;2022-09-14T00:52:46;6.18;;;4.75;;
30173;SDS011;16985;50.814;8.530;2022-09-14T00:55:15;6.72;;;4.30;;
30173;SDS011;16985;50.814;8.530;2022-09-14T00:57:48;6.90;;;4.88;;
30173;SDS011;16985;50.814;8.530;2022-09-14T01:00:19;6.20;;;4.78;;
30173;SDS011;16985;50.814;8.530;2022-09-14T01:02:49;4.43;;;4.00;;
30173;SDS011;16985;50.814;8.530;2022-09-14T01:05:15;5.70;;;4.28;;
30173;SDS011;16985;50.814;8.530;2022-09-14T01:07:44;9.00;;;4.20;;
30173;SDS011;16985;50.814;8.530;2022-09-14T01:10:32;8.50;;;5.30;;
30173;SDS011;16985;50.814;8.530;2022-09-14T01:13:45;6.95;;;4.25;;
30173;SDS011;16985;50.814;8.530;2022-09-14T01:16:28;8.98;;;4.75;;
30173;SDS011;16985;50.814;8.530;2022-09-14T01:19:05;8.70;;;4.75;;
30173;SDS011;16985;50.814;8.530;2022-09-14T01:22:17;5.68;;;4.68;;
30173;SDS011;16985;50.814;8.530;2022-09-14T01:25:02;7.97;;;5.30;;
30173;SDS011;16985;50.814;8.530;2022-09-14T01:27:42;6.07;;;4.20;;
30173;SDS011;16985;50.814;8.530;2022-09-14T01:30:13;6.47;;;5.00;;
30173;SDS011;16985;50.814;8.530;2022-09-14T01:35:39;6.13;;;5.05;;
30173;SDS011;16985;50.814;8.530;2022-09-14T01:38:28;8.57;;;4.70;;
30173;SDS011;16985;50.814;8.530;2022-09-14T01:40:59;15.27;;;5.22;;
30173;SDS011;16985;50.814;8.530;2022-09-14T01:43:30;9.40;;;5.65;;
30173;SDS011;16985;50.814;8.530;2022-09-14T01:46:03;7.78;;;5.63;;
30173;SDS011;16985;50.814;8.530;2022-09-14T01:51:28;5.75;;;4.75;;
30173;SDS011;16985;50.814;8.530;2022-09-14T01:54:04;8.68;;;5.35;;
30173;SDS011;16985;50.814;8.530;2022-09-14T01:56:54;6.80;;;5.07;;
30173;SDS011;16985;50.814;8.530;2022-09-14T01:59:26;7.93;;;5.75;;
30173;SDS011;16985;50.814;8.530;2022-09-14T02:02:03;8.07;;;5.45;;
30173;SDS011;16985;50.814;8.530;2022-09-14T02:07:33;8.70;;;6.32;;
30173;SDS011;16985;50.814;8.530;2022-09-14T02:09:59;10.88;;;7.68;;
30173;SDS011;16985;50.814;8.530;2022-09-14T02:14:53;11.13;;;7.50;;
30173;SDS011;16985;50.814;8.530;2022-09-14T02:17:19;8.85;;;7.18;;
30173;SDS011;16985;50.814;8.530;2022-09-14T02:19:47;14.15;;;7.50;;
30173;SDS011;16985;50.814;8.530;2022-09-14T02:22:18;13.77;;;7.90;;
30173;SDS011;16985;50.814;8.530;2022-09-14T02:24:45;9.73;;;7.72;;
30173;SDS011;16985;50.814;8.530;2022-09-14T02:27:11;8.73;;;6.82;;
30173;SDS011;16985;50.814;8.530;2022-09-14T02:29:37;13.13;;;8.95;;
30173;SDS011;16985;50.814;8.530;2022-09-14T02:32:06;11.38;;;6.70;;
30173;SDS011;16985;50.814;8.530;2022-09-14T02:38:03;11.93;;;8.18;;
30173;SDS011;16985;50.814;8.530;2022-09-14T02:40:38;10.85;;;7.57;;
30173;SDS011;16985;50.814;8.530;2022-09-14T02:48:53;13.93;;;7.55;;
30173;SDS011;16985;50.814;8.530;2022-09-14T02:51:41;11.40;;;8.43;;
30173;SDS011;16985;50.814;8.530;2022-09-14T02:54:23;14.73;;;8.25;;
30173;SDS011;16985;50.814;8.530;2022-09-14T02:57:25;13.18;;;7.63;;
30173;SDS011;16985;50.814;8.530;2022-09-14T02:59:54;9.85;;;7.55;;
30173;SDS011;16985;50.814;8.530;2022-09-14T03:02:20;11.32;;;7.63;;
30173;SDS011;16985;50.814;8.530;2022-09-14T03:04:46;12.23;;;7.40;;
30173;SDS011;16985;50.814;8.530;2022-09-14T03:07:12;13.57;;;8.13;;
30173;SDS011;16985;50.814;8.530;2022-09-14T03:09:38;15.02;;;8.25;;
30173;SDS011;16985;50.814;8.530;2022-09-14T03:12:04;10.35;;;7.30;;
30173;SDS011;16985;50.814;8.530;2022-09-14T03:14:30;10.57;;;8.05;;
30173;SDS011;16985;50.814;8.530;2022-09-14T03:16:55;14.70;;;8.05;;
30173;SDS011;16985;50.814;8.530;2022-09-14T03:19:21;10.00;;;7.60;;
30173;SDS011;16985;50.814;8.530;2022-09-14T03:21:47;13.95;;;8.30;;
30173;SDS011;16985;50.814;8.530;2022-09-14T03:24:13;11.95;;;8.25;;
30173;SDS011;16985;50.814;8.530;2022-09-14T03:26:38;10.93;;;8.27;;
30173;SDS011;16985;50.814;8.530;2022-09-14T03:29:04;11.75;;;8.05;;
30173;SDS011;16985;50.814;8.530;2022-09-14T03:31:31;12.88;;;8.30;;
30173;SDS011;16985;50.814;8.530;2022-09-14T03:33:58;12.38;;;8.38;;
30173;SDS011;16985;50.814;8.530;2022-09-14T03:36:26;10.85;;;8.05;;
30173;SDS011;16985;50.814;8.530;2022-09-14T03:38:55;10.13;;;7.63;;
30173;SDS011;16985;50.814;8.530;2022-09-14T03:41:22;12.25;;;8.48;;
30173;SDS011;16985;50.814;8.530;2022-09-14T03:43:49;11.35;;;8.80;;
30173;SDS011;16985;50.814;8.530;2022-09-14T03:46:16;9.98;;;7.70;;
30173;SDS011;16985;50.814;8.530;2022-09-14T03:48:47;11.68;;;8.82;;
30173;SDS011;16985;50.814;8.530;2022-09-14T03:51:13;9.65;;;7.35;;
30173;SDS011;16985;50.814;8.530;2022-09-14T03:53:40;10.43;;;7.68;;
30173;SDS011;16985;50.814;8.530;2022-09-14T03:56:07;10.65;;;7.75;;
30173;SDS011;16985;50.814;8.530;2022-09-14T03:58:37;11.63;;;8.00;;
30173;SDS011;16985;50.814;8.530;2022-09-14T04:01:04;9.63;;;7.60;;
30173;SDS011;16985;50.814;8.530;2022-09-14T04:03:31;12.80;;;7.85;;
30173;SDS011;16985;50.814;8.530;2022-09-14T04:05:58;8.35;;;6.80;;
30173;SDS011;16985;50.814;8.530;2022-09-14T04:08:24;8.18;;;6.72;;
30173;SDS011;16985;50.814;8.530;2022-09-14T04:10:50;9.77;;;7.07;;
30173;SDS011;16985;50.814;8.530;2022-09-14T04:13:16;9.95;;;6.50;;
30173;SDS011;16985;50.814;8.530;2022-09-14T04:15:42;8.98;;;6.65;;
30173;SDS011;16985;50.814;8.530;2022-09-14T04:18:08;9.30;;;6.55;;
30173;SDS011;16985;50.814;8.530;2022-09-14T04:20:34;7.40;;;5.80;;
30173;SDS011;16985;50.814;8.530;2022-09-14T04:22:59;7.50;;;6.30;;
30173;SDS011;16985;50.814;8.530;2022-09-14T04:25:25;6.90;;;5.88;;
30173;SDS011;16985;50.814;8.530;2022-09-14T04:27:51;11.07;;;6.10;;
30173;SDS011;16985;50.814;8.530;2022-09-14T04:30:18;10.48;;;6.03;;
30173;SDS011;16985;50.814;8.530;2022-09-14T04:32:44;7.35;;;6.10;;
30173;SDS011;16985;50.814;8.530;2022-09-14T04:35:10;7.93;;;5.57;;
30173;SDS011;16985;50.814;8.530;2022-09-14T04:37:36;6.85;;;5.63;;
30173;SDS011;16985;50.814;8.530;2022-09-14T04:40:02;7.93;;;6.13;;
30173;SDS011;16985;50.814;8.530;2022-09-14T04:42:29;9.82;;;6.50;;
30173;SDS011;16985;50.814;8.530;2022-09-14T04:44:55;7.03;;;5.40;;
30173;SDS011;16985;50.814;8.530;2022-09-14T04:47:21;9.88;;;5.60;;
30173;SDS011;16985;50.814;8.530;2022-09-14T04:49:46;7.35;;;5.93;;
30173;SDS011;16985;50.814;8.530;2022-09-14T04:52:12;9.60;;;6.35;;
30173;SDS011;16985;50.814;8.530;2022-09-14T04:54:38;8.30;;;5.57;;
30173;SDS011;16985;50.814;8.530;2022-09-14T04:57:04;7.03;;;5.68;;
30173;SDS011;16985;50.814;8.530;2022-09-14T04:59:29;7.47;;;5.80;;
30173;SDS011;16985;50.814;8.530;2022-09-14T05:01:56;8.75;;;6.00;;
30173;SDS011;16985;50.814;8.530;2022-09-14T05:04:22;7.85;;;5.40;;
30173;SDS011;16985;50.814;8.530;2022-09-14T05:06:48;8.05;;;5.75;;
30173;SDS011;16985;50.814;8.530;2022-09-14T05:09:15;8.25;;;5.47;;
30173;SDS011;16985;50.814;8.530;2022-09-14T05:11:42;8.20;;;6.18;;
30173;SDS011;16985;50.814;8.530;2022-09-14T05:14:10;7.63;;;5.55;;
30173;SDS011;16985;50.814;8.530;2022-09-14T05:16:37;7.68;;;5.75;;
30173;SDS011;16985;50.814;8.530;2022-09-14T05:19:07;7.00;;;4.97;;
30173;SDS011;16985;50.814;8.530;2022-09-14T05:21:36;7.00;;;4.72;;
30173;SDS011;16985;50.814;8.530;2022-09-14T05:24:06;8.15;;;5.47;;
30173;SDS011;16985;50.814;8.530;2022-09-14T05:26:41;8.27;;;5.10;;
30173;SDS011;16985;50.814;8.530;2022-09-14T05:29:15;8.87;;;5.17;;
30173;SDS011;16985;50.814;8.530;2022-09-14T05:31:42;5.43;;;4.70;;
30173;SDS011;16985;50.814;8.530;2022-09-14T05:34:09;9.18;;;4.93;;
30173;SDS011;16985;50.814;8.530;2022-09-14T05:36:36;6.40;;;4.50;;
30173;SDS011;16985;50.814;8.530;2022-09-14T05:39:03;5.35;;;3.95;;
30173;SDS011;16985;50.814;8.530;2022-09-14T05:41:29;7.18;;;4.30;;
30173;SDS011;16985;50.814;8.530;2022-09-14T05:43:56;7.63;;;4.55;;
30173;SDS011;16985;50.814;8.530;2022-09-14T05:46:23;6.07;;;4.40;;
30173;SDS011;16985;50.814;8.530;2022-09-14T05:48:50;5.97;;;4.32;;
30173;SDS011;16985;50.814;8.530;2022-09-14T05:51:17;4.97;;;4.05;;
30173;SDS011;16985;50.814;8.530;2022-09-14T05:53:48;5.53;;;4.78;;
30173;SDS011;16985;50.814;8.530;2022-09-14T05:56:21;4.53;;;4.10;;
30173;SDS011;16985;50.814;8.530;2022-09-14T05:58:49;5.43;;;3.63;;
30173;SDS011;16985;50.814;8.530;2022-09-14T06:03:52;5.22;;;4.65;;
30173;SDS011;16985;50.814;8.530;2022-09-14T06:06:22;5.50;;;4.15;;
30173;SDS011;16985;50.814;8.530;2022-09-14T06:08:49;6.13;;;3.95;;
30173;SDS011;16985;50.814;8.530;2022-09-14T06:11:17;6.32;;;4.20;;
30173;SDS011;16985;50.814;8.530;2022-09-14T06:13:46;5.97;;;5.10;;
30173;SDS011;16985;50.814;8.530;2022-09-14T06:16:14;6.03;;;3.72;;
30173;SDS011;16985;50.814;8.530;2022-09-14T06:21:08;5.82;;;3.85;;
30173;SDS011;16985;50.814;8.530;2022-09-14T06:23:39;5.57;;;3.67;;
30173;SDS011;16985;50.814;8.530;2022-09-14T06:26:05;3.35;;;2.95;;
30173;SDS011;16985;50.814;8.530;2022-09-14T06:28:31;4.00;;;3.15;;
30173;SDS011;16985;50.814;8.530;2022-09-14T06:30:58;6.50;;;3.60;;
30173;SDS011;16985;50.814;8.530;2022-09-14T06:33:25;4.18;;;3.25;;
30173;SDS011;16985;50.814;8.530;2022-09-14T06:35:54;4.10;;;3.13;;
30173;SDS011;16985;50.814;8.530;2022-09-14T06:38:22;4.68;;;3.13;;
30173;SDS011;16985;50.814;8.530;2022-09-14T06:40:49;4.40;;;3.20;;
30173;SDS011;16985;50.814;8.530;2022-09-14T06:43:27;5.35;;;4.15;;
30173;SDS011;16985;50.814;8.530;2022-09-14T06:48:40;4.03;;;2.92;;
30173;SDS011;16985;50.814;8.530;2022-09-14T06:51:19;3.42;;;3.00;;
30173;SDS011;16985;50.814;8.530;2022-09-14T06:53:49;3.35;;;2.83;;
30173;SDS011;16985;50.814;8.530;2022-09-14T06:56:16;4.18;;;2.97;;
30173;SDS011;16985;50.814;8.530;2022-09-14T06:58:42;3.90;;;2.83;;
30173;SDS011;16985;50.814;8.530;2022-09-14T07:01:10;5.45;;;2.83;;
30173;SDS011;16985;50.814;8.530;2022-09-14T07:03:40;3.72;;;2.85;;
30173;SDS011;16985;50.814;8.530;2022-09-14T07:06:09;4.75;;;2.67;;
30173;SDS011;16985;50.814;8.530;2022-09-14T07:08:41;7.53;;;2.65;;
30173;SDS011;16985;50.814;8.530;2022-09-14T07:11:09;3.33;;;3.03;;
30173;SDS011;16985;50.814;8.530;2022-09-14T07:13:36;3.33;;;2.97;;
30173;SDS011;16985;50.814;8.530;2022-09-14T07:16:03;3.42;;;2.78;;
30173;SDS011;16985;50.814;8.530;2022-09-14T07:18:29;2.92;;;2.60;;
30173;SDS011;16985;50.814;8.530;2022-09-14T07:21:00;3.72;;;2.63;;
30173;SDS011;16985;50.814;8.530;2022-09-14T07:23:32;3.63;;;3.08;;
30173;SDS011;16985;50.814;8.530;2022-09-14T07:26:04;2.95;;;2.60;;
30173;SDS011;16985;50.814;8.530;2022-09-14T07:28:45;4.38;;;2.80;;
30173;SDS011;16985;50.814;8.530;2022-09-14T07:31:19;4.50;;;2.83;;
30173;SDS011;16985;50.814;8.530;2022-09-14T07:33:51;4.80;;;3.10;;
30173;SDS011;16985;50.814;8.530;2022-09-14T07:36:20;7.13;;;3.33;;
30173;SDS011;16985;50.814;8.530;2022-09-14T07:38:47;4.63;;;2.80;;
30173;SDS011;16985;50.814;8.530;2022-09-14T07:41:13;6.10;;;3.45;;
30173;SDS011;16985;50.814;8.530;2022-09-14T07:43:39;5.72;;;2.65;;
30173;SDS011;16985;50.814;8.530;2022-09-14T07:46:05;4.82;;;3.35;;
30173;SDS011;16985;50.814;8.530;2022-09-14T07:48:32;5.22;;;3.30;;
30173;SDS011;16985;50.814;8.530;2022-09-14T07:53:30;5.88;;;2.97;;
30173;SDS011;16985;50.814;8.530;2022-09-14T07:55:59;4.43;;;2.65;;
30173;SDS011;16985;50.814;8.530;2022-09-14T07:58:26;4.47;;;2.60;;
30173;SDS011;16985;50.814;8.530;2022-09-14T08:00:59;3.78;;;2.33;;
30173;SDS011;16985;50.814;8.530;2022-09-14T08:03:28;3.75;;;2.50;;
30173;SDS011;16985;50.814;8.530;2022-09-14T08:05:59;3.72;;;2.22;;
30173;SDS011;16985;50.814;8.530;2022-09-14T08:08:28;3.40;;;2.33;;
30173;SDS011;16985;50.814;8.530;2022-09-14T08:11:01;2.83;;;2.30;;
30173;SDS011;16985;50.814;8.530;2022-09-14T08:13:35;3.80;;;2.33;;
30173;SDS011;16985;50.814;8.530;2022-09-14T08:16:02;4.78;;;2.10;;
30173;SDS011;16985;50.814;8.530;2022-09-14T08:18:29;3.65;;;2.40;;
30173;SDS011;16985;50.814;8.530;2022-09-14T08:20:56;4.50;;;3.03;;
30173;SDS011;16985;50.814;8.530;2022-09-14T08:23:29;3.60;;;2.22;;
30173;SDS011;16985;50.814;8.530;2022-09-14T08:25:54;1.60;;;1.50;;
30173;SDS011;16985;50.814;8.530;2022-09-14T08:28:21;5.68;;;2.22;;
30173;SDS011;16985;50.814;8.530;2022-09-14T08:30:47;3.58;;;1.80;;
30173;SDS011;16985;50.814;8.530;2022-09-14T08:33:12;2.55;;;1.63;;
30173;SDS011;16985;50.814;8.530;2022-09-14T08:35:42;1.90;;;1.40;;
30173;SDS011;16985;50.814;8.530;2022-09-14T08:38:09;2.28;;;1.65;;
30173;SDS011;16985;50.814;8.530;2022-09-14T08:40:41;2.20;;;1.40;;
30173;SDS011;16985;50.814;8.530;2022-09-14T08:43:09;2.75;;;1.67;;
30173;SDS011;16985;50.814;8.530;2022-09-14T08:45:38;2.05;;;1.00;;
30173;SDS011;16985;50.814;8.530;2022-09-14T08:48:14;3.95;;;1.67;;
30173;SDS011;16985;50.814;8.530;2022-09-14T08:50:49;2.47;;;1.27;;
30173;SDS011;16985;50.814;8.530;2022-09-14T08:53:19;1.77;;;1.33;;
30173;SDS011;16985;50.814;8.530;2022-09-14T08:55:53;1.30;;;1.20;;
30173;SDS011;16985;50.814;8.530;2022-09-14T09:06:28;2.70;;;1.40;;
30173;SDS011;16985;50.814;8.530;2022-09-14T09:17:37;1.40;;;1.20;;
30173;SDS011;16985;50.814;8.530;2022-09-14T09:23:28;2.67;;;1.20;;
30173;SDS011;16985;50.814;8.530;2022-09-14T09:25:50;2.70;;;1.50;;
30173;SDS011;16985;50.814;8.530;2022-09-14T09:28:37;3.47;;;1.30;;
30173;SDS011;16985;50.814;8.530;2022-09-14T09:31:14;2.70;;;1.20;;
30173;SDS011;16985;50.814;8.530;2022-09-14T09:34:14;2.28;;;1.08;;
30173;SDS011;16985;50.814;8.530;2022-09-14T09:36:46;2.13;;;1.45;;
30173;SDS011;16985;50.814;8.530;2022-09-14T09:39:13;2.25;;;1.35;;
30173;SDS011;16985;50.814;8.530;2022-09-14T09:41:45;2.53;;;1.23;;
30173;SDS011;16985;50.814;8.530;2022-09-14T09:44:52;6.47;;;1.10;;
30173;SDS011;16985;50.814;8.530;2022-09-14T09:47:39;2.30;;;1.00;;
30173;SDS011;16985;50.814;8.530;2022-09-14T09:52:37;2.70;;;1.20;;
30173;SDS011;16985;50.814;8.530;2022-09-14T09:55:19;1.23;;;0.90;;
30173;SDS011;16985;50.814;8.530;2022-09-14T09:57:52;4.68;;;1.20;;
30173;SDS011;16985;50.814;8.530;2022-09-14T10:00:22;2.05;;;1.00;;
30173;SDS011;16985;50.814;8.530;2022-09-14T10:02:52;0.77;;;0.70;;
30173;SDS011;16985;50.814;8.530;2022-09-14T10:05:20;1.67;;;0.82;;
30173;SDS011;16985;50.814;8.530;2022-09-14T10:10:39;1.27;;;0.70;;
30173;SDS011;16985;50.814;8.530;2022-09-14T10:13:15;3.80;;;0.73;;
30173;SDS011;16985;50.814;8.530;2022-09-14T10:16:07;0.55;;;0.50;;
30173;SDS011;16985;50.814;8.530;2022-09-14T10:18:46;0.60;;;0.60;;
30173;SDS011;16985;50.814;8.530;2022-09-14T10:21:15;1.00;;;0.82;;
30173;SDS011;16985;50.814;8.530;2022-09-14T10:23:45;0.70;;;0.50;;
30173;SDS011;16985;50.814;8.530;2022-09-14T10:26:27;0.93;;;0.40;;
30173;SDS011;16985;50.814;8.530;2022-09-14T10:29:17;0.60;;;0.50;;
30173;SDS011;16985;50.814;8.530;2022-09-14T10:32:04;3.38;;;0.50;;
30173;SDS011;16985;50.814;8.530;2022-09-14T10:34:41;0.40;;;0.40;;
30173;SDS011;16985;50.814;8.530;2022-09-14T10:40:44;0.50;;;0.40;;
30173;SDS011;16985;50.814;8.530;2022-09-14T10:45:47;1.42;;;0.60;;
30173;SDS011;16985;50.814;8.530;2022-09-14T11:00:10;0.43;;;0.43;;
30173;SDS011;16985;50.814;8.530;2022-09-14T11:08:53;0.47;;;0.47;;
30173;SDS011;16985;50.814;8.530;2022-09-14T11:17:32;2.92;;;0.50;;
30173;SDS011;16985;50.814;8.530;2022-09-14T11:24:13;2.45;;;0.43;;
30173;SDS011;16985;50.814;8.530;2022-09-14T11:27:35;0.47;;;0.47;;
30173;SDS011;16985;50.814;8.530;2022-09-14T11:30:10;0.40;;;0.40;;
30173;SDS011;16985;50.814;8.530;2022-09-14T11:32:58;1.40;;;0.90;;
30173;SDS011;16985;50.814;8.530;2022-09-14T11:35:40;1.20;;;0.90;;
30173;SDS011;16985;50.814;8.530;2022-09-14T11:38:40;1.45;;;0.82;;
30173;SDS011;16985;50.814;8.530;2022-09-14T11:41:28;0.63;;;0.63;;
30173;SDS011;16985;50.814;8.530;2022-09-14T11:44:02;3.05;;;0.73;;
30173;SDS011;16985;50.814;8.530;2022-09-14T11:46:40;1.13;;;0.77;;
30173;SDS011;16985;50.814;8.530;2022-09-14T11:49:16;0.73;;;0.73;;
30173;SDS011;16985;50.814;8.530;2022-09-14T11:51:56;1.48;;;0.88;;
30173;SDS011;16985;50.814;8.530;2022-09-14T11:54:47;1.58;;;0.88;;
30173;SDS011;16985;50.814;8.530;2022-09-14T11:57:22;2.55;;;0.85;;
30173;SDS011;16985;50.814;8.530;2022-09-14T11:59:54;0.95;;;0.80;;
30173;SDS011;16985;50.814;8.530;2022-09-14T12:12:39;1.58;;;0.80;;
30173;SDS011;16985;50.814;8.530;2022-09-14T12:17:52;1.63;;;1.08;;
30173;SDS011;16985;50.814;8.530;2022-09-14T12:23:12;1.67;;;1.30;;
30173;SDS011;16985;50.814;8.530;2022-09-14T12:28:24;3.20;;;1.30;;
30173;SDS011;16985;50.814;8.530;2022-09-14T12:31:29;2.67;;;1.70;;
30173;SDS011;16985;50.814;8.530;2022-09-14T12:39:19;1.80;;;1.20;;
30173;SDS011;16985;50.814;8.530;2022-09-14T12:44:31;4.78;;;1.70;;
30173;SDS011;16985;50.814;8.530;2022-09-14T12:49:49;3.50;;;1.40;;
30173;SDS011;16985;50.814;8.530;2022-09-14T12:52:43;2.75;;;1.63;;
30173;SDS011;16985;50.814;8.530;2022-09-14T12:56:00;5.10;;;2.03;;
30173;SDS011;16985;50.814;8.530;2022-09-14T12:58:33;4.07;;;2.10;;
30173;SDS011;16985;50.814;8.530;2022-09-14T13:03:51;4.07;;;1.88;;
30173;SDS011;16985;50.814;8.530;2022-09-14T13:06:20;4.30;;;1.58;;
30173;SDS011;16985;50.814;8.530;2022-09-14T13:08:52;3.78;;;1.80;;
30173;SDS011;16985;50.814;8.530;2022-09-14T13:11:22;1.75;;;1.60;;
30173;SDS011;16985;50.814;8.530;2022-09-14T13:13:56;4.35;;;1.92;;
30173;SDS011;16985;50.814;8.530;2022-09-14T13:16:29;2.10;;;1.52;;
30173;SDS011;16985;50.814;8.530;2022-09-14T13:19:05;2.28;;;1.70;;
30173;SDS011;16985;50.814;8.530;2022-09-14T13:21:47;2.00;;;1.80;;
30173;SDS011;16985;50.814;8.530;2022-09-14T13:24:18;3.03;;;2.00;;
30173;SDS011;16985;50.814;8.530;2022-09-14T13:26:46;1.58;;;1.48;;
30173;SDS011;16985;50.814;8.530;2022-09-14T13:29:13;2.95;;;2.67;;
30173;SDS011;16985;50.814;8.530;2022-09-14T13:31:40;1.55;;;1.45;;
30173;SDS011;16985;50.814;8.530;2022-09-14T13:34:25;3.95;;;1.60;;
30173;SDS011;16985;50.814;8.530;2022-09-14T13:36:54;2.00;;;1.73;;
30173;SDS011;16985;50.814;8.530;2022-09-14T13:39:34;2.58;;;1.40;;
30173;SDS011;16985;50.814;8.530;2022-09-14T13:42:02;2.15;;;1.67;;
30173;SDS011;16985;50.814;8.530;2022-09-14T13:44:31;4.03;;;1.63;;
30173;SDS011;16985;50.814;8.530;2022-09-14T13:47:02;2.72;;;1.40;;
30173;SDS011;16985;50.814;8.530;2022-09-14T13:54:46;6.65;;;2.42;;
30173;SDS011;16985;50.814;8.530;2022-09-14T13:57:21;7.57;;;2.67;;
30173;SDS011;16985;50.814;8.530;2022-09-14T14:02:48;5.57;;;2.35;;
30173;SDS011;16985;50.814;8.530;2022-09-14T14:07:53;7.97;;;1.92;;
30173;SDS011;16985;50.814;8.530;2022-09-14T14:10:22;3.63;;;1.80;;
30173;SDS011;16985;50.814;8.530;2022-09-14T14:12:52;2.63;;;1.63;;
30173;SDS011;16985;50.814;8.530;2022-09-14T14:17:44;2.50;;;1.63;;
30173;SDS011;16985;50.814;8.530;2022-09-14T14:23:02;2.13;;;1.33;;
30173;SDS011;16985;50.814;8.530;2022-09-14T14:25:49;4.60;;;1.55;;
30173;SDS011;16985;50.814;8.530;2022-09-14T14:28:28;2.90;;;1.20;;
30173;SDS011;16985;50.814;8.530;2022-09-14T14:30:55;2.35;;;1.05;;
30173;SDS011;16985;50.814;8.530;2022-09-14T14:33:23;2.38;;;1.55;;
30173;SDS011;16985;50.814;8.530;2022-09-14T14:35:50;3.78;;;1.30;;
30173;SDS011;16985;50.814;8.530;2022-09-14T14:40:44;2.17;;;1.20;;
30173;SDS011;16985;50.814;8.530;2022-09-14T14:43:18;1.48;;;1.20;;
30173;SDS011;16985;50.814;8.530;2022-09-14T14:45:46;1.67;;;1.08;;
30173;SDS011;16985;50.814;8.530;2022-09-14T14:48:12;1.50;;;1.25;;
30173;SDS011;16985;50.814;8.530;2022-09-14T14:50:38;4.60;;;1.13;;
30173;SDS011;16985;50.814;8.530;2022-09-14T14:53:04;4.18;;;2.08;;
30173;SDS011;16985;50.814;8.530;2022-09-14T14:55:31;3.08;;;1.00;;
30173;SDS011;16985;50.814;8.530;2022-09-14T14:57:58;1.25;;;0.70;;
30173;SDS011;16985;50.814;8.530;2022-09-14T15:00:27;3.13;;;1.00;;
30173;SDS011;16985;50.814;8.530;2022-09-14T15:02:56;2.67;;;1.00;;
30173;SDS011;16985;50.814;8.530;2022-09-14T15:05:22;1.88;;;0.98;;
30173;SDS011;16985;50.814;8.530;2022-09-14T15:07:49;3.33;;;0.98;;
30173;SDS011;16985;50.814;8.530;2022-09-14T15:10:17;3.45;;;1.33;;
30173;SDS011;16985;50.814;8.530;2022-09-14T15:12:43;2.07;;;0.73;;
30173;SDS011;16985;50.814;8.530;2022-09-14T15:15:11;2.78;;;1.02;;
30173;SDS011;16985;50.814;8.530;2022-09-14T15:17:39;2.63;;;0.90;;
30173;SDS011;16985;50.814;8.530;2022-09-14T15:20:05;2.90;;;1.38;;
30173;SDS011;16985;50.814;8.530;2022-09-14T15:22:32;1.05;;;0.60;;
30173;SDS011;16985;50.814;8.530;2022-09-14T15:24:58;0.70;;;0.63;;
30173;SDS011;16985;50.814;8.530;2022-09-14T15:27:24;1.23;;;0.50;;
30173;SDS011;16985;50.814;8.530;2022-09-14T15:29:49;0.40;;;0.40;;
30173;SDS011;16985;50.814;8.530;2022-09-14T15:32:15;1.95;;;0.60;;
30173;SDS011;16985;50.814;8.530;2022-09-14T15:34:41;0.63;;;0.50;;
30173;SDS011;16985;50.814;8.530;2022-09-14T15:37:08;8.80;;;0.70;;
30173;SDS011;16985;50.814;8.530;2022-09-14T15:39:34;4.32;;;0.60;;
30173;SDS011;16985;50.814;8.530;2022-09-14T15:41:59;0.63;;;0.55;;
30173;SDS011;16985;50.814;8.530;2022-09-14T15:44:25;4.15;;;0.60;;
30173;SDS011;16985;50.814;8.530;2022-09-14T15:46:51;0.55;;;0.50;;
30173;SDS011;16985;50.814;8.530;2022-09-14T15:49:19;1.35;;;0.60;;
30173;SDS011;16985;50.814;8.530;2022-09-14T15:51:47;0.40;;;0.40;;
30173;SDS011;16985;50.814;8.530;2022-09-14T15:54:14;1.67;;;0.50;;
30173;SDS011;16985;50.814;8.530;2022-09-14T15:56:42;0.70;;;0.70;;
30173;SDS011;16985;50.814;8.530;2022-09-14T15:59:12;1.13;;;0.40;;
30173;SDS011;16985;50.814;8.530;2022-09-14T16:01:38;0.73;;;0.60;;
30173;SDS011;16985;50.814;8.530;2022-09-14T16:04:05;0.50;;;0.50;;
30173;SDS011;16985;50.814;8.530;2022-09-14T16:06:32;0.50;;;0.50;;
30173;SDS011;16985;50.814;8.530;2022-09-14T16:09:02;0.30;;;0.30;;
30173;SDS011;16985;50.814;8.530;2022-09-14T16:11:30;0.88;;;0.40;;
30173;SDS011;16985;50.814;8.530;2022-09-14T16:13:57;1.08;;;0.50;;
30173;SDS011;16985;50.814;8.530;2022-09-14T16:16:23;0.55;;;0.55;;
30173;SDS011;16985;50.814;8.530;2022-09-14T16:18:49;1.00;;;0.75;;
30173;SDS011;16985;50.814;8.530;2022-09-14T16:21:19;1.25;;;0.50;;
30173;SDS011;16985;50.814;8.530;2022-09-14T16:23:56;0.40;;;0.40;;
30173;SDS011;16985;50.814;8.530;2022-09-14T16:26:26;3.55;;;0.63;;
30173;SDS011;16985;50.814;8.530;2022-09-14T16:28:57;0.47;;;0.47;;
30173;SDS011;16985;50.814;8.530;2022-09-14T16:31:25;0.52;;;0.50;;
30173;SDS011;16985;50.814;8.530;2022-09-14T16:33:57;0.50;;;0.50;;
30173;SDS011;16985;50.814;8.530;2022-09-14T16:36:30;0.55;;;0.50;;
30173;SDS011;16985;50.814;8.530;2022-09-14T16:39:00;0.75;;;0.50;;
30173;SDS011;16985;50.814;8.530;2022-09-14T16:41:30;1.30;;;0.63;;
30173;SDS011;16985;50.814;8.530;2022-09-14T16:43:57;1.35;;;0.60;;
30173;SDS011;16985;50.814;8.530;2022-09-14T16:46:26;0.70;;;0.60;;
30173;SDS011;16985;50.814;8.530;2022-09-14T16:48:53;1.30;;;0.77;;
30173;SDS011;16985;50.814;8.530;2022-09-14T16:51:23;0.70;;;0.70;;
30173;SDS011;16985;50.814;8.530;2022-09-14T16:53:52;2.15;;;0.80;;
30173;SDS011;16985;50.814;8.530;2022-09-14T16:56:23;1.52;;;0.50;;
30173;SDS011;16985;50.814;8.530;2022-09-14T16:58:57;1.02;;;0.65;;
30173;SDS011;16985;50.814;8.530;2022-09-14T17:04:17;1.63;;;0.75;;
30173;SDS011;16985;50.814;8.530;2022-09-14T17:06:46;0.70;;;0.70;;
30173;SDS011;16985;50.814;8.530;2022-09-14T17:09:18;1.23;;;0.50;;
30173;SDS011;16985;50.814;8.530;2022-09-14T17:11:50;1.45;;;0.98;;
30173;SDS011;16985;50.814;8.530;2022-09-14T17:14:18;2.72;;;0.80;;
30173;SDS011;16985;50.814;8.530;2022-09-14T17:16:48;0.80;;;0.80;;
30173;SDS011;16985;50.814;8.530;2022-09-14T17:19:14;2.75;;;0.95;;
30173;SDS011;16985;50.814;8.530;2022-09-14T17:21:41;2.47;;;1.00;;
30173;SDS011;16985;50.814;8.530;2022-09-14T17:26:36;2.13;;;0.77;;
30173;SDS011;16985;50.814;8.530;2022-09-14T17:29:02;1.77;;;0.90;;
30173;SDS011;16985;50.814;8.530;2022-09-14T17:31:30;0.90;;;0.60;;
30173;SDS011;16985;50.814;8.530;2022-09-14T17:33:59;2.83;;;0.70;;